Depesze METAR lotnisk w Polsce

METAR – format kodowanego raportu o pogodzie używany w meteorologii lotniczej i prognozie pogody. METAR jest akronimem od ang. Meteorological Aerodrome Report. Typowy METAR zawiera informację o temperaturze, ciśnieniu, temperaturze punktu rosy, sile i kierunku wiatru, opadzie, pokrywie chmur, wysokości podstawy chmur, widzialności, lecz może zawierać też inne informacje (np. stan dróg startowych).

Warszawa-Okęcie (EPWA)

METAR = EPWA 221430Z 33010KT 9999 FEW046 15/04 Q1031 NOSIG

STACJA......... EPWA - Warszawa-Okęcie (WAW)
POMIAR......... Fri Mar 22, 15:30 CET
WIATR.......... północno północno-zachodni (NNW) z prędkością 19 km/h
WIDZIALNOŚĆ.... powyżej 10 kilometrów
CHMURY......... zachmurzenie niewielkie (1/8-2/8)
TEMPERATURA.... 15°C
T.PUNKTU ROSY.. 4°C
WILGOTNOŚĆ..... 48%
CIŚNIENIE...... 1031 hPa
CIŚN.BEZWZGL... 1018 hPa
PROGNOZA....... bez nagłych zmian w ciągu 2h

Sprawdź też: Prognoza pogody Warszawa

Warszawa-Modlin (EPMO)

METAR = EPMO 221430Z 34008KT 9999 FEW047 14/02 Q1031 =

STACJA......... EPMO - Warszawa-Modlin (WMI)
POMIAR......... Fri Mar 22, 15:30 CET
WIATR.......... północno północno-zachodni (NNW) z prędkością 15 km/h
WIDZIALNOŚĆ.... powyżej 10 kilometrów
CHMURY......... zachmurzenie niewielkie (1/8-2/8)
TEMPERATURA.... 14°C
T.PUNKTU ROSY.. 2°C
WILGOTNOŚĆ..... 44%
CIŚNIENIE...... 1031 hPa
CIŚN.BEZWZGL... 1018 hPa

Sprawdź też: Prognoza pogody Nowy Dwór Mazowiecki

Kraków-Balice (EPKK)

METAR = EPKK 221430Z 28006KT 9999 OVC020 11/07 Q1031

STACJA......... EPKK - Kraków-Balice (KRK)
POMIAR......... Fri Mar 22, 15:30 CET
WIATR.......... zachodni (W) z prędkością 11 km/h
WIDZIALNOŚĆ.... powyżej 10 kilometrów
CHMURY......... zachmurzenie całkowite (8/8)
TEMPERATURA.... 11°C
T.PUNKTU ROSY.. 7°C
WILGOTNOŚĆ..... 77%
CIŚNIENIE...... 1031 hPa
CIŚN.BEZWZGL... 1002 hPa

Sprawdź też: Prognoza pogody Kraków

Łódź-Lublinek (EPLL)

METAR = EPLL 221430Z 31004KT 260V010 9999 FEW020 BKN033 11/06 Q1032

STACJA......... EPLL - Łódź-Lublinek (LCJ)
POMIAR......... Fri Mar 22, 15:30 CET
WIATR.......... północno zachodni (NW) z prędkością 7 km/h
WIDZIALNOŚĆ.... powyżej 10 kilometrów
CHMURY......... zachmurzenie średnie (5/8-7/8)
TEMPERATURA.... 11°C
T.PUNKTU ROSY.. 6°C
WILGOTNOŚĆ..... 72%
CIŚNIENIE...... 1032 hPa
CIŚN.BEZWZGL... 1009 hPa

Sprawdź też: Prognoza pogody Łódź

Wrocław-Strachowice (EPWR)

METAR = EPWR 221430Z 13003KT 050V170 9999 BKN015 12/07 Q1032

STACJA......... EPWR - Wrocław-Strachowice (WRO)
POMIAR......... Fri Mar 22, 15:30 CET
WIATR.......... południowo wschodni (SE) z prędkością 6 km/h
WIDZIALNOŚĆ.... powyżej 10 kilometrów
CHMURY......... zachmurzenie średnie (5/8-7/8)
TEMPERATURA.... 12°C
T.PUNKTU ROSY.. 7°C
WILGOTNOŚĆ..... 72%
CIŚNIENIE...... 1032 hPa
CIŚN.BEZWZGL... 1017 hPa

Sprawdź też: Prognoza pogody Wrocław

Katowice-Pyrzowice (EPKT)

METAR = EPKT 221430Z 32005KT 290V360 9999 OVC010 09/06 Q1032

STACJA......... EPKT - Katowice-Pyrzowice (KTW)
POMIAR......... Fri Mar 22, 15:30 CET
WIATR.......... północno zachodni (NW) z prędkością 9 km/h
WIDZIALNOŚĆ.... powyżej 10 kilometrów
CHMURY......... zachmurzenie całkowite (8/8)
TEMPERATURA.... 9°C
T.PUNKTU ROSY.. 6°C
WILGOTNOŚĆ..... 82%
T.ODCZUWALNA... 7°C
CIŚNIENIE...... 1032 hPa
CIŚN.BEZWZGL... 995 hPa

Sprawdź też: Prognoza pogody Katowice

Gdańsk (EPGD)

METAR = EPGD 221430Z 07007KT 020V100 CAVOK 09/M04 Q1033

STACJA......... EPGD - Gdańsk im. Lecha Wałęsy (GDN)
POMIAR......... Fri Mar 22, 15:30 CET
WIATR.......... wschodni północno-wschodni (ENE) z prędkością 13 km/h
WIDZIALNOŚĆ.... powyżej 10 kilometrów
CHMURY......... bezchmurne niebo
TEMPERATURA.... 9°C
T.PUNKTU ROSY.. -4°C
WILGOTNOŚĆ..... 40%
T.ODCZUWALNA... 7°C
CIŚNIENIE...... 1033 hPa
CIŚN.BEZWZGL... 1015 hPa

Sprawdź też: Prognoza pogody Gdańsk

Poznań-Ławica (EPPO)

METAR = EPPO 221430Z 05003KT 9999 OVC013 10/07 Q1033

STACJA......... EPPO - Poznań-Ławica (POZ)
POMIAR......... Fri Mar 22, 15:30 CET
WIATR.......... północno-wschodni (NE) z prędkością 6 km/h
WIDZIALNOŚĆ.... powyżej 10 kilometrów
CHMURY......... zachmurzenie całkowite (8/8)
TEMPERATURA.... 10°C
T.PUNKTU ROSY.. 7°C
WILGOTNOŚĆ..... 82%
T.ODCZUWALNA... 9°C
CIŚNIENIE...... 1033 hPa
CIŚN.BEZWZGL... 1021 hPa

Sprawdź też: Prognoza pogody Poznań

Rzeszów-Jasionka (EPRZ)

METAR = EPRZ 221430Z 31008KT 9999 OVC020 11/07 Q1030

STACJA......... EPRZ - Rzeszów-Jasionka (RZE)
POMIAR......... Fri Mar 22, 15:30 CET
WIATR.......... północno zachodni (NW) z prędkością 15 km/h
WIDZIALNOŚĆ.... powyżej 10 kilometrów
CHMURY......... zachmurzenie całkowite (8/8)
TEMPERATURA.... 11°C
T.PUNKTU ROSY.. 7°C
WILGOTNOŚĆ..... 77%
CIŚNIENIE...... 1030 hPa
CIŚN.BEZWZGL... 1004 hPa

Sprawdź też: Prognoza pogody Rzeszów

Szczecin-Goleniów (EPSC)

METAR = EPSC 221430Z 10005KT 9999 OVC011 10/07 Q1032

STACJA......... EPSC - Szczecin-Goleniów (SZZ)
POMIAR......... Fri Mar 22, 15:30 CET
WIATR.......... wschodni (E) z prędkością 9 km/h
WIDZIALNOŚĆ.... powyżej 10 kilometrów
CHMURY......... zachmurzenie całkowite (8/8)
TEMPERATURA.... 10°C
T.PUNKTU ROSY.. 7°C
WILGOTNOŚĆ..... 82%
T.ODCZUWALNA... 9°C
CIŚNIENIE...... 1032 hPa
CIŚN.BEZWZGL... 1026 hPa

Sprawdź też: Prognoza pogody Szczecin

Lublin-Świdnik (EPLB)

METAR = EPLB 221430Z 32011KT 9999 SCT041 14/06 Q1029 =

STACJA......... EPLB - Lublin-Świdnik (LUZ)
POMIAR......... Fri Mar 22, 15:30 CET
WIATR.......... północno zachodni (NW) z prędkością 20 km/h
WIDZIALNOŚĆ.... powyżej 10 kilometrów
CHMURY......... zachmurzenie małe (3/8-4/8)
TEMPERATURA.... 14°C
T.PUNKTU ROSY.. 6°C
WILGOTNOŚĆ..... 59%
CIŚNIENIE...... 1029 hPa
CIŚN.BEZWZGL... 1005 hPa

Sprawdź też: Prognoza pogody Lublin

Bydgoszcz-Szwederowo (EPBY)

METAR = EPBY 221430Z 09005KT 050V170 9999 BKN038 14/05 Q1032 =

STACJA......... EPBY - Bydgoszcz-Szwederowo (BZG)
POMIAR......... Fri Mar 22, 15:30 CET
WIATR.......... wschodni (E) z prędkością 9 km/h
WIDZIALNOŚĆ.... powyżej 10 kilometrów
CHMURY......... zachmurzenie średnie (5/8-7/8)
TEMPERATURA.... 14°C
T.PUNKTU ROSY.. 5°C
WILGOTNOŚĆ..... 55%
CIŚNIENIE...... 1032 hPa
CIŚN.BEZWZGL... 1023 hPa

Sprawdź też: Prognoza pogody Bydgoszcz

Zielona Góra-Babimost (EPZG)

METAR = EPZG 221430Z NIL=

STACJA......... EPZG - Zielona Góra-Babimost (IEG)
POMIAR......... Fri Mar 22, 15:30 CET
DEPESZA........ brak aktualnej prognozy w treści depeszy

Sprawdź też: Prognoza pogody Zielona Góra

Szymany Olsztyn-Mazury (EPSY)

METAR = EPSY 221430Z 36011KT CAVOK 12/M06 Q1032=

STACJA......... EPSY - Olsztyn-Mazury (SZY)
POMIAR......... Fri Mar 22, 15:30 CET
WIATR.......... północny (N) z prędkością 20 km/h
WIDZIALNOŚĆ.... powyżej 10 kilometrów
CHMURY......... bezchmurne niebo
TEMPERATURA.... 12°C
T.PUNKTU ROSY.. -6°C
WILGOTNOŚĆ..... 28%
CIŚNIENIE...... 1032 hPa
CIŚN.BEZWZGL... 1015 hPa

Sprawdź też: Prognoza pogody Olsztyn